GCLAGCHI

Guest
Details From GCLA - La Palma
To GCHI - Hierro
Flight Number -
Tags generated
Created
Modified
Stats Distance 49 nm / 91 km
Max Altitude 0 ft / 0 m
Waypoints 2
Social Downloads 0
Likes 0
Share VATSIM

Download

Looking for another format? Having issues loading an existing format? Contact us
Advertisement - Login to hide

Notes

Basic altitude profile: - Ascent Rate: 2500ft/min - Ascent Speed: 250kts - Cruise Altitude: 35000ft - Cruise Speed: 420kts - Descent Rate: 1500ft/min - Descent Speed: 250kts Options: - Use NATs: yes - Use PACOTS: yes - Use low airways: yes - Use high airways: yes

Route

GCLA GCHI

ID Type Via Altitude Latitude Longitude Leg Dist Tot Dist Heading (true) Name
O GCLA APT - 0 ft / 0 m 28.62648˚ -17.75561˚ - 0 nm - La Palma
O GCHI APT - 0 ft / 0 m 27.81485˚ -17.88705˚ 49 nm 49 nm 188° / 188° Hierro

Altitude Profile

Advertisement - Login to hide

GCLA

Details ICAO GCLA (SPC)
Name La Palma
Region Canary Islands
Timezone Atlantic/Canary (UTC+0.0)
Stats Elevation 107 ft / 33 m (AMSL)
Location 28.626480° -17.755613°
Runways 1
Magnetic Variation 5.523° W

METAR

GCLA 111930Z 03011G21KT 350V070 7000 -DZ FEW025 BKN090 19/17 Q1016 RERA

Decode

TAF

TAF GCLA 111400Z 1115/1215 VRB06KT 9999 FEW035 TX22/1115Z TN17/1206Z BECMG 1118/1120 36018KT TEMPO 1118/1215 36018G30KT TEMPO 1119/1202 3000 RA

Decode

Departure Runways

ID Width Length Bearing (true) Bearing (mag) Surface Threshold Offset Overrun Length
01 148 ft / 45 m 7,240 ft / 2,207 m 359.02° 4.54° Asphalt 0 ft / 0 m 279 ft / 85 m
19 148 ft / 45 m 7,240 ft / 2,207 m 179.02° 184.54° Asphalt 0 ft / 0 m 236 ft / 72 m

GCHI

Details ICAO GCHI (VDE)
Name Hierro
Region Canary Islands
Timezone Atlantic/Canary (UTC+0.0)
Stats Elevation 337 ft / 103 m (AMSL)
Location 27.814848° -17.887052°
Runways 1
Magnetic Variation 5.629° W

METAR

GCHI 111930Z AUTO 31018G29KT 280V340 9999 FEW040 21/16 Q1015

Decode

TAF

TAF AMD TAF AMD GCHI 111545Z 1115/1215 29015KT 9999 FEW025 TX23/1115Z TN17/1206Z BECMG 1120/1123 35016KT TEMPO 1121/1215 35016G30KT TEMPO 1120/1202 RA

Decode

Destination Runways

ID Width Length Bearing (true) Bearing (mag) Surface Threshold Offset Overrun Length
16 98 ft / 30 m 4,110 ft / 1,253 m 152.71° 158.34° Asphalt 0 ft / 0 m 112 ft / 34 m
34 98 ft / 30 m 4,110 ft / 1,253 m 332.71° 338.34° Asphalt 0 ft / 0 m 105 ft / 32 m

Popular Alternatives